createdAt,value
2022-09-12T00:01:14.864Z,159345.94
2022-09-12T00:03:45.094Z,159331.22
2022-09-12T00:06:33.468Z,159320.56
2022-09-12T00:09:03.663Z,159320.56
2022-09-12T00:11:37.078Z,159317.94
2022-09-12T00:14:06.314Z,159309.88
2022-09-12T00:16:35.877Z,159311.25
2022-09-12T00:19:05.090Z,159299.22
2022-09-12T00:21:34.572Z,159307.22
2022-09-12T00:24:02.199Z,159279.19
2022-09-12T00:26:29.694Z,159300.53
2022-09-12T00:28:57.142Z,159307.22
2022-09-12T00:31:26.070Z,159292.56
2022-09-12T00:33:56.323Z,159301.88
2022-09-12T00:36:25.297Z,159277.88
2022-09-12T00:38:53.704Z,159288.53
2022-09-12T00:41:24.760Z,159275.16
2022-09-12T00:43:58.642Z,159268.50
2022-09-12T00:46:36.291Z,159279.19
2022-09-12T00:49:13.010Z,159263.16
2022-09-12T00:51:43.949Z,159269.81
2022-09-12T00:54:14.633Z,159243.13
2022-09-12T00:56:43.689Z,159255.16
2022-09-12T00:59:15.741Z,159239.09
2022-09-12T01:01:45.517Z,159235.13
2022-09-12T01:04:14.193Z,159232.44
2022-09-12T01:06:43.589Z,159225.75
2022-09-12T01:09:16.946Z,159220.47
2022-09-12T01:11:47.116Z,159195.09
2022-09-12T01:14:17.197Z,159209.75
2022-09-12T01:16:45.349Z,159193.75
2022-09-12T01:19:43.970Z,159209.75
2022-09-12T01:22:39.955Z,159212.47
2022-09-12T01:25:34.049Z,159217.75
2022-09-12T01:28:14.735Z,159201.75
2022-09-12T01:30:45.943Z,159212.47
2022-09-12T01:33:48.595Z,159215.09
2022-09-12T01:36:36.778Z,159207.09
2022-09-12T01:39:07.013Z,159181.75
2022-09-12T01:41:43.993Z,159181.75
2022-09-12T01:44:20.013Z,159176.41
2022-09-12T01:46:49.250Z,159172.41
2022-09-12T01:49:21.975Z,159161.72
2022-09-12T01:51:53.658Z,159159.06
2022-09-12T01:54:26.377Z,159171.09
2022-09-12T01:56:56.251Z,159163.09
2022-09-12T01:59:41.332Z,159164.44
2022-09-12T02:02:16.444Z,159167.06
2022-09-12T02:04:55.972Z,159171.09
2022-09-12T02:07:28.031Z,159165.75
2022-09-12T02:10:00.965Z,159177.78
2022-09-12T02:12:37.422Z,159172.41
2022-09-12T02:15:08.144Z,159176.41
2022-09-12T02:17:38.803Z,159180.41
2022-09-12T02:20:25.962Z,159183.06
2022-09-12T02:23:06.465Z,159179.09
2022-09-12T02:25:36.159Z,159181.75
2022-09-12T02:28:25.184Z,159193.75
2022-09-12T02:31:04.728Z,159204.41
2022-09-12T02:33:41.155Z,159215.09
2022-09-12T02:36:08.955Z,159224.44
2022-09-12T02:38:45.636Z,159197.78
2022-09-12T02:41:16.972Z,159215.09
2022-09-12T02:43:44.243Z,159225.75
2022-09-12T02:46:18.284Z,159229.78
2022-09-12T02:48:45.754Z,159239.09
2022-09-12T02:51:13.193Z,159247.16
2022-09-12T02:53:42.169Z,159236.47
2022-09-12T02:56:13.689Z,159240.47
2022-09-12T02:58:41.038Z,159237.78
2022-09-12T03:01:30.135Z,159233.81
2022-09-12T03:04:03.787Z,159219.13
2022-09-12T03:06:34.679Z,159209.75
2022-09-12T03:09:23.334Z,159232.44
2022-09-12T03:11:53.299Z,159232.44
2022-09-12T03:14:41.758Z,159221.78
2022-09-12T03:17:25.271Z,159219.13
2022-09-12T03:20:21.868Z,159221.78
2022-09-12T03:23:18.078Z,159217.75
2022-09-12T03:26:02.918Z,159221.78
2022-09-12T03:28:31.409Z,159199.13
2022-09-12T03:30:59.750Z,159181.75
2022-09-12T03:33:27.239Z,159195.09
2022-09-12T03:35:55.485Z,159193.75
2022-09-12T03:38:23.338Z,159183.06
2022-09-12T03:40:54.726Z,159197.78
2022-09-12T03:43:23.002Z,159197.78
2022-09-12T03:45:53.490Z,159196.41
2022-09-12T03:48:21.403Z,159184.44
2022-09-12T03:50:49.009Z,159189.75
2022-09-12T03:53:17.457Z,159172.41
2022-09-12T03:55:45.299Z,159159.06
2022-09-12T03:58:12.728Z,159159.06
2022-09-12T04:00:41.195Z,159140.38
2022-09-12T04:03:09.082Z,159131.06
2022-09-12T04:05:36.801Z,159132.38
2022-09-12T04:08:04.513Z,159133.72
2022-09-12T04:10:32.143Z,159131.06
2022-09-12T04:12:59.629Z,159139.06
2022-09-12T04:15:27.041Z,159144.41
2022-09-12T04:17:54.293Z,159139.06
2022-09-12T04:20:21.560Z,159141.75
2022-09-12T04:22:49.320Z,159136.41
2022-09-12T04:25:17.411Z,159129.75
2022-09-12T04:27:44.759Z,159140.38
2022-09-12T04:30:12.861Z,159120.41
2022-09-12T04:32:41.152Z,159105.69
2022-09-12T04:35:08.642Z,159105.69
2022-09-12T04:37:36.269Z,159105.69
2022-09-12T04:40:03.773Z,159101.72
2022-09-12T04:42:31.091Z,159091.03
2022-09-12T04:44:58.710Z,159108.41
2022-09-12T04:47:25.937Z,159101.72
2022-09-12T04:49:53.296Z,159101.72
2022-09-12T04:52:21.588Z,159100.41
2022-09-12T04:54:49.035Z,159095.06
2022-09-12T04:57:16.330Z,159097.69
2022-09-12T04:59:43.783Z,159105.69
2022-09-12T05:02:11.261Z,159105.69
2022-09-12T05:04:38.602Z,159099.03
2022-09-12T05:07:06.083Z,159091.03
2022-09-12T05:09:33.567Z,159103.06
2022-09-12T05:12:05.512Z,159112.38
2022-09-12T05:14:34.863Z,159100.41
2022-09-12T05:17:02.586Z,159124.38
2022-09-12T05:19:30.975Z,159121.75
2022-09-12T05:21:59.253Z,159137.72
2022-09-12T05:24:26.993Z,159133.72
2022-09-12T05:26:54.769Z,159139.06
2022-09-12T05:29:22.284Z,159147.06
2022-09-12T05:31:52.100Z,159149.75
2022-09-12T05:34:20.175Z,159157.75
2022-09-12T05:36:47.983Z,159163.09
2022-09-12T05:39:15.491Z,159155.06
2022-09-12T05:41:42.784Z,159164.44
2022-09-12T05:44:14.312Z,159147.06
2022-09-12T05:46:44.077Z,159151.06
2022-09-12T05:49:13.408Z,159156.44
2022-09-12T05:51:43.452Z,159157.75
2022-09-12T05:54:14.312Z,159160.41
2022-09-12T05:56:44.830Z,159160.41
2022-09-12T05:59:20.271Z,159164.44
2022-09-12T06:01:48.751Z,159173.75
2022-09-12T06:04:17.033Z,159160.41
2022-09-12T06:06:45.589Z,159161.72
2022-09-12T06:09:15.762Z,159164.44
2022-09-12T06:11:43.884Z,159151.06
2022-09-12T06:14:15.863Z,159157.75
2022-09-12T06:16:43.557Z,159163.09
2022-09-12T06:19:18.831Z,159180.41
2022-09-12T06:21:49.776Z,159159.06
2022-09-12T06:24:18.803Z,159164.44
2022-09-12T06:26:47.702Z,159161.72
2022-09-12T06:29:16.039Z,159169.78
2022-09-12T06:31:44.098Z,159161.72
2022-09-12T06:34:14.188Z,159192.44
2022-09-12T06:36:45.639Z,159209.75
2022-09-12T06:39:18.532Z,159221.78
2022-09-12T06:41:47.146Z,159219.13
2022-09-12T06:44:21.205Z,159227.13
2022-09-12T06:46:49.345Z,159225.75
2022-09-12T06:49:17.933Z,159240.47
2022-09-12T06:51:45.493Z,159237.78
2022-09-12T06:54:14.700Z,159256.47
2022-09-12T06:56:42.183Z,159267.13
2022-09-12T06:59:09.812Z,159275.16
2022-09-12T07:01:37.754Z,159264.47
2022-09-12T07:04:05.762Z,159280.53
2022-09-12T07:06:41.969Z,159307.22
2022-09-12T07:09:13.197Z,159293.88
2022-09-12T07:11:41.866Z,159297.91
2022-09-12T07:14:13.002Z,159313.91
2022-09-12T07:16:40.901Z,159321.91
2022-09-12T07:19:08.574Z,159336.56
2022-09-12T07:21:40.021Z,159313.91
2022-09-12T07:24:09.946Z,159325.91
2022-09-12T07:26:38.400Z,159324.59
2022-09-12T07:29:34.865Z,159320.56
2022-09-12T07:31:53.902Z,159317.94
2022-09-12T07:34:21.397Z,159337.91
2022-09-12T07:36:48.504Z,159368.63
2022-09-12T07:39:16.174Z,159365.94
2022-09-12T07:41:43.422Z,159375.31
2022-09-12T07:44:10.887Z,159395.34
2022-09-12T07:46:40.237Z,159408.63
2022-09-12T07:49:08.510Z,159423.38
2022-09-12T07:51:36.206Z,159443.34
2022-09-12T07:54:08.179Z,159463.38
2022-09-12T07:56:39.123Z,159443.34
2022-09-12T07:59:08.495Z,159462.06
2022-09-12T08:01:36.142Z,159486.06
2022-09-12T08:04:05.389Z,159516.81
2022-09-12T08:06:36.172Z,159514.09
2022-09-12T08:09:05.127Z,159518.13
2022-09-12T08:11:33.336Z,159531.50
2022-09-12T08:14:03.216Z,159542.16
2022-09-12T08:16:31.699Z,159568.88
2022-09-12T08:19:02.269Z,159591.56
2022-09-12T08:21:31.380Z,159603.59
2022-09-12T08:24:04.136Z,159640.97
2022-09-12T08:26:34.263Z,159626.28
2022-09-12T08:29:02.639Z,159647.66
2022-09-12T08:31:32.167Z,159630.31
2022-09-12T08:34:01.063Z,159658.34
2022-09-12T08:36:29.765Z,159657.03
2022-09-12T08:39:04.951Z,159677.06
2022-09-12T08:41:36.648Z,159663.72
2022-09-12T08:44:28.661Z,159661.00
2022-09-12T08:47:14.865Z,159654.34
2022-09-12T08:49:51.677Z,159674.38
2022-09-12T08:52:29.938Z,159665.03
2022-09-12T08:54:57.566Z,159679.72
2022-09-12T08:57:25.384Z,159701.16
2022-09-12T08:59:53.617Z,159713.19
2022-09-12T09:02:39.883Z,159718.50
2022-09-12T09:05:16.506Z,159734.56
2022-09-12T09:08:16.108Z,159765.28
2022-09-12T09:11:11.712Z,159777.31
2022-09-12T09:14:09.924Z,159796.00
2022-09-12T09:16:42.412Z,159804.03
2022-09-12T09:19:15.753Z,159785.31
2022-09-12T09:21:53.826Z,159787.97
2022-09-12T09:24:26.491Z,159787.97
2022-09-12T09:26:58.774Z,159787.97
2022-09-12T09:29:31.059Z,159790.69
2022-09-12T09:32:00.605Z,159781.28
2022-09-12T09:34:34.558Z,159786.66
2022-09-12T09:37:15.678Z,159816.03
2022-09-12T09:39:55.073Z,159834.75
2022-09-12T09:42:50.219Z,159826.75
2022-09-12T09:45:21.041Z,159840.13
2022-09-12T09:48:25.049Z,159865.47
2022-09-12T09:50:52.351Z,159865.47
2022-09-12T09:53:43.933Z,159868.19
2022-09-12T09:56:36.327Z,159864.16
2022-09-12T09:59:15.712Z,159908.25
2022-09-12T10:01:57.768Z,159929.63
2022-09-12T10:04:27.548Z,159961.72
2022-09-12T10:06:57.532Z,159995.16
2022-09-12T10:09:36.332Z,159972.41
2022-09-12T10:12:28.472Z,159960.41
2022-09-12T10:15:01.356Z,159965.72
2022-09-12T10:17:41.759Z,159964.38
2022-09-12T10:20:32.405Z,159943.00
2022-09-12T10:23:01.953Z,159925.66
2022-09-12T10:25:29.308Z,159909.56
2022-09-12T10:27:59.103Z,159937.63
2022-09-12T10:30:28.825Z,159940.34
2022-09-12T10:33:11.923Z,159968.41
2022-09-12T10:35:45.339Z,159959.03
2022-09-12T10:38:41.758Z,159959.03
2022-09-12T10:41:10.649Z,159959.03
2022-09-12T10:43:42.481Z,159949.69
2022-09-12T10:46:18.602Z,159976.44
2022-09-12T10:48:48.501Z,159995.16
2022-09-12T10:51:27.850Z,159977.75
2022-09-12T10:53:58.217Z,159977.75
2022-09-12T10:57:03.740Z,159969.75
2022-09-12T10:59:52.009Z,159967.09
2022-09-12T11:02:56.920Z,160012.53
2022-09-12T11:05:36.816Z,160028.53
2022-09-12T11:08:12.978Z,160052.69
2022-09-12T11:10:58.654Z,160068.72
2022-09-12T11:14:03.573Z,160095.47
2022-09-12T11:16:41.092Z,160100.84
2022-09-12T11:19:35.246Z,160092.78
2022-09-12T11:22:07.338Z,160092.78
2022-09-12T11:24:50.070Z,160123.56
2022-09-12T11:27:39.730Z,160132.91
2022-09-12T11:30:13.380Z,160139.59
2022-09-12T11:33:05.901Z,160126.22
2022-09-12T11:35:35.848Z,160100.84
2022-09-12T11:38:21.753Z,160083.44
2022-09-12T11:40:54.472Z,160084.75
2022-09-12T11:43:37.520Z,160102.16
2022-09-12T11:46:18.445Z,160114.16
2022-09-12T11:48:52.067Z,160092.78
2022-09-12T11:51:20.665Z,160099.47
2022-09-12T11:53:58.672Z,160092.78
2022-09-12T11:56:26.298Z,160099.47
2022-09-12T11:59:09.073Z,160108.84
2022-09-12T12:01:43.880Z,160114.16
2022-09-12T12:04:18.583Z,160122.22
2022-09-12T12:07:08.003Z,160147.63
2022-09-12T12:09:35.913Z,160175.69
2022-09-12T12:12:08.199Z,160193.13
2022-09-12T12:14:43.877Z,160207.81
2022-09-12T12:17:22.897Z,160187.75
2022-09-12T12:20:08.451Z,160201.13
2022-09-12T12:22:37.378Z,160183.72
2022-09-12T12:25:13.007Z,160215.84
2022-09-12T12:28:02.074Z,160247.91
2022-09-12T12:30:29.755Z,160219.81
2022-09-12T12:33:13.225Z,160214.50
2022-09-12T12:35:42.083Z,160206.50
2022-09-12T12:38:31.184Z,160202.47
2022-09-12T12:41:18.739Z,160194.44
2022-09-12T12:43:56.410Z,160181.06
2022-09-12T12:46:28.683Z,160197.09
2022-09-12T12:49:19.376Z,160214.50
2022-09-12T12:52:01.653Z,160226.50
2022-09-12T12:54:49.749Z,160235.91
2022-09-12T12:57:23.772Z,160226.50
2022-09-12T12:59:55.367Z,160217.16
2022-09-12T13:02:42.138Z,160235.91
2022-09-12T13:05:24.738Z,160230.53
2022-09-12T13:07:58.773Z,160241.22
2022-09-12T13:10:29.479Z,160256.00
2022-09-12T13:13:05.405Z,160266.66
2022-09-12T13:15:36.090Z,160258.63
2022-09-12T13:18:10.420Z,160259.97
2022-09-12T13:21:15.007Z,160270.69
2022-09-12T13:23:43.196Z,160270.69
2022-09-12T13:26:22.492Z,160290.72
2022-09-12T13:28:51.739Z,160314.84
2022-09-12T13:31:28.642Z,160301.44
2022-09-12T13:33:58.947Z,160344.25
2022-09-12T13:36:37.648Z,160338.91
2022-09-12T13:39:19.734Z,160361.69
2022-09-12T13:42:18.640Z,160358.97
2022-09-12T13:44:50.075Z,160373.69
2022-09-12T13:47:44.335Z,160372.34
2022-09-12T13:50:33.672Z,160396.47
2022-09-12T13:53:07.986Z,160409.88
2022-09-12T13:55:39.445Z,160409.88
2022-09-12T13:58:24.151Z,160472.75
2022-09-12T14:01:10.360Z,160499.53
2022-09-12T14:04:02.048Z,160519.63
2022-09-12T14:06:37.463Z,160525.00
2022-09-12T14:09:13.853Z,160515.59
2022-09-12T14:11:42.314Z,160523.63
2022-09-12T14:14:32.851Z,160514.28
2022-09-12T14:17:02.794Z,160478.13
2022-09-12T14:19:30.809Z,160470.13
2022-09-12T14:21:59.364Z,160475.47
2022-09-12T14:24:26.802Z,160499.53
2022-09-12T14:26:57.040Z,160498.22
2022-09-12T14:29:25.533Z,160494.19
2022-09-12T14:32:05.995Z,160511.59
2022-09-12T14:34:33.777Z,160522.28
2022-09-12T14:37:06.787Z,160519.63
2022-09-12T14:39:40.460Z,160537.00
2022-09-12T14:42:21.210Z,160549.06
2022-09-12T14:44:57.448Z,160543.72
2022-09-12T14:47:27.457Z,160529.00
2022-09-12T14:49:55.565Z,160526.31
2022-09-12T14:52:33.343Z,160537.00
2022-09-12T14:55:16.309Z,160542.38
2022-09-12T14:57:44.681Z,160547.75
2022-09-12T15:00:12.632Z,160566.50
2022-09-12T15:02:40.853Z,160562.47
2022-09-12T15:05:08.321Z,160561.13
2022-09-12T15:07:38.307Z,160555.78
2022-09-12T15:10:18.284Z,160542.38
2022-09-12T15:12:46.260Z,160583.88
2022-09-12T15:15:19.126Z,160561.13
2022-09-12T15:17:46.850Z,160529.00
2022-09-12T15:20:14.953Z,160491.53
2022-09-12T15:22:42.683Z,160458.06
2022-09-12T15:25:12.092Z,160454.06
2022-09-12T15:27:41.009Z,160466.06
2022-09-12T15:30:10.470Z,160466.06
2022-09-12T15:32:38.305Z,160471.44
2022-09-12T15:35:17.126Z,160478.13
2022-09-12T15:37:45.176Z,160458.06
2022-09-12T15:40:13.530Z,160439.34
2022-09-12T15:42:41.625Z,160433.97
2022-09-12T15:45:28.992Z,160421.91
2022-09-12T15:47:56.676Z,160395.16
2022-09-12T15:50:25.015Z,160383.13
2022-09-12T15:52:52.792Z,160349.63
2022-09-12T15:55:22.851Z,160334.91
2022-09-12T15:57:51.149Z,160322.84
2022-09-12T16:00:19.444Z,160317.50
2022-09-12T16:02:48.245Z,160294.75
2022-09-12T16:05:20.133Z,160264.00
2022-09-12T16:07:47.781Z,160233.22
2022-09-12T16:10:19.674Z,160221.19
2022-09-12T16:12:47.530Z,160205.13
2022-09-12T16:15:18.468Z,160186.41
2022-09-12T16:17:45.976Z,160187.75
2022-09-12T16:20:14.095Z,160151.66
2022-09-12T16:22:41.945Z,160148.94
2022-09-12T16:25:09.812Z,160140.91
2022-09-12T16:27:37.767Z,160154.31
2022-09-12T16:30:07.368Z,160155.63
2022-09-12T16:32:35.821Z,160152.97
2022-09-12T16:35:04.361Z,160155.63
2022-09-12T16:37:34.757Z,160146.28
2022-09-12T16:40:03.197Z,160127.53
2022-09-12T16:42:31.137Z,160106.16
2022-09-12T16:44:58.886Z,160083.44
2022-09-12T16:47:27.134Z,160074.09
2022-09-12T16:49:54.967Z,160055.34
2022-09-12T16:52:22.455Z,160068.72
2022-09-12T16:54:49.807Z,160055.34
2022-09-12T16:57:17.588Z,160055.34
2022-09-12T16:59:46.192Z,160056.69
2022-09-12T17:02:14.516Z,160048.63
2022-09-12T17:04:42.106Z,160032.59
2022-09-12T17:07:09.531Z,160044.63
2022-09-12T17:09:36.941Z,160052.69
2022-09-12T17:12:05.798Z,160049.94
2022-09-12T17:14:33.333Z,160049.94
2022-09-12T17:17:00.765Z,160048.63
2022-09-12T17:19:30.045Z,160039.25
2022-09-12T17:21:58.050Z,160031.25
2022-09-12T17:24:26.088Z,160025.88
2022-09-12T17:26:53.930Z,160015.16
2022-09-12T17:29:21.563Z,160008.53
2022-09-12T17:31:49.829Z,159997.81
2022-09-12T17:34:17.871Z,160005.84
2022-09-12T17:36:45.883Z,159995.16
2022-09-12T17:39:14.486Z,160007.16
2022-09-12T17:41:42.979Z,159991.13
2022-09-12T17:44:15.317Z,159988.47
2022-09-12T17:46:44.845Z,159993.78
2022-09-12T17:49:14.654Z,160001.84
2022-09-12T17:51:44.078Z,159997.81
2022-09-12T17:54:16.280Z,160004.50
2022-09-12T17:56:49.840Z,160000.47
2022-09-12T17:59:21.632Z,160007.16
2022-09-12T18:02:07.912Z,160016.56
2022-09-12T18:04:36.070Z,160013.84
2022-09-12T18:07:05.136Z,159996.50
2022-09-12T18:09:32.925Z,160001.84
2022-09-12T18:12:00.622Z,159988.47
2022-09-12T18:14:28.932Z,159991.13
2022-09-12T18:17:00.406Z,159984.44
2022-09-12T18:19:28.494Z,159975.09
2022-09-12T18:21:56.222Z,159975.09
2022-09-12T18:24:25.049Z,159964.38
2022-09-12T18:26:53.219Z,159953.72
2022-09-12T18:29:20.872Z,159951.00
2022-09-12T18:31:49.053Z,159921.63
2022-09-12T18:34:17.511Z,159908.25
2022-09-12T18:36:47.034Z,159876.19
2022-09-12T18:39:14.869Z,159864.16
2022-09-12T18:41:42.608Z,159886.84
2022-09-12T18:44:11.668Z,159892.22
2022-09-12T18:46:39.315Z,159846.81
2022-09-12T18:49:07.916Z,159848.13
2022-09-12T18:51:36.736Z,159853.50
2022-09-12T18:54:06.789Z,159856.13
2022-09-12T18:56:37.805Z,159849.47
2022-09-12T18:59:06.744Z,159840.13
2022-09-12T19:01:37.180Z,159832.06
2022-09-12T19:04:06.572Z,159818.75
2022-09-12T19:06:36.539Z,159812.06
2022-09-12T19:09:08.184Z,159776.00
2022-09-12T19:11:38.871Z,159758.59
2022-09-12T19:14:07.825Z,159755.94
2022-09-12T19:16:35.692Z,159746.56
2022-09-12T19:19:03.995Z,159739.88
2022-09-12T19:21:33.203Z,159734.56
2022-09-12T19:24:03.678Z,159723.84
2022-09-12T19:26:32.347Z,159703.81
2022-09-12T19:29:00.220Z,159697.13
2022-09-12T19:31:27.857Z,159678.41
2022-09-12T19:34:02.754Z,159673.06
2022-09-12T19:36:47.294Z,159645.00
2022-09-12T19:39:17.522Z,159634.28
2022-09-12T19:41:45.817Z,159615.63
2022-09-12T19:44:13.620Z,159579.56
2022-09-12T19:46:42.002Z,159560.84
2022-09-12T19:49:10.948Z,159532.81
2022-09-12T19:51:38.678Z,159495.44
2022-09-12T19:54:07.974Z,159452.72
2022-09-12T19:56:35.814Z,159420.66
2022-09-12T19:59:04.185Z,159392.63
2022-09-12T20:01:32.805Z,159368.63
2022-09-12T20:04:00.299Z,159339.28
2022-09-12T20:06:28.100Z,159320.56
2022-09-12T20:08:56.454Z,159301.88
2022-09-12T20:11:24.662Z,159283.22
2022-09-12T20:13:52.863Z,159243.13
2022-09-12T20:16:25.290Z,159217.75
2022-09-12T20:19:07.268Z,159208.44
2022-09-12T20:21:36.768Z,159187.09
2022-09-12T20:24:07.187Z,159157.75
2022-09-12T20:26:36.435Z,159141.75
2022-09-12T20:29:05.525Z,159116.41
2022-09-12T20:31:34.178Z,159101.72
2022-09-12T20:34:03.224Z,159088.38
2022-09-12T20:36:30.743Z,159079.06
2022-09-12T20:39:01.479Z,159071.06
2022-09-12T20:41:32.969Z,159063.03
2022-09-12T20:44:00.666Z,159037.72
2022-09-12T20:46:29.071Z,159039.03
2022-09-12T20:48:57.138Z,159033.69
2022-09-12T20:51:27.022Z,159020.34
2022-09-12T20:53:59.031Z,159008.38
2022-09-12T20:56:28.633Z,158993.72
2022-09-12T20:58:56.301Z,158973.72
2022-09-12T21:01:24.673Z,158967.06
2022-09-12T21:03:53.220Z,158959.06
2022-09-12T21:06:21.211Z,158941.69
2022-09-12T21:08:49.504Z,158927.03
2022-09-12T21:11:18.301Z,158888.41
2022-09-12T21:13:46.643Z,158863.06
2022-09-12T21:16:16.970Z,158859.03
2022-09-12T21:18:46.426Z,158861.75
2022-09-12T21:21:15.495Z,158815.06
2022-09-12T21:23:42.945Z,158827.06
2022-09-12T21:26:10.616Z,158824.38
2022-09-12T21:28:38.042Z,158789.78
2022-09-12T21:31:05.814Z,158797.75
2022-09-12T21:33:33.535Z,158793.75
2022-09-12T21:36:05.577Z,158792.41
2022-09-12T21:38:33.461Z,158789.78
2022-09-12T21:41:12.435Z,158768.34
2022-09-12T21:43:40.590Z,158749.72
2022-09-12T21:46:08.642Z,158747.03
2022-09-12T21:48:36.654Z,158735.06
2022-09-12T21:51:04.901Z,158721.75
2022-09-12T21:53:32.451Z,158720.44
2022-09-12T21:56:08.357Z,158709.75
2022-09-12T21:58:37.273Z,158707.09
2022-09-12T22:01:06.288Z,158684.47
2022-09-12T22:03:34.783Z,158675.09
2022-09-12T22:06:04.946Z,158657.81
2022-09-12T22:08:33.836Z,158635.19
2022-09-12T22:11:03.143Z,158631.16
2022-09-12T22:13:32.384Z,158605.81
2022-09-12T22:16:03.715Z,158617.81
2022-09-12T22:18:35.693Z,158620.47
2022-09-12T22:21:09.002Z,158619.16
2022-09-12T22:23:55.359Z,158619.16
2022-09-12T22:26:23.236Z,158608.53
2022-09-12T22:28:50.959Z,158620.47
2022-09-12T22:31:18.373Z,158611.16
2022-09-12T22:33:45.895Z,158589.84
2022-09-12T22:36:13.704Z,158587.22
2022-09-12T22:38:41.266Z,158587.22
2022-09-12T22:41:11.434Z,158600.53
2022-09-12T22:43:39.145Z,158597.84
2022-09-12T22:46:12.541Z,158588.53
2022-09-12T22:48:40.809Z,158565.91
2022-09-12T22:51:09.264Z,158568.56
2022-09-12T22:53:37.753Z,158556.53
2022-09-12T22:56:06.061Z,158535.25
2022-09-12T22:58:37.654Z,158523.28
2022-09-12T23:01:06.486Z,158516.63
2022-09-12T23:03:34.525Z,158497.97
2022-09-12T23:06:02.751Z,158493.94
2022-09-12T23:08:30.714Z,158479.31
2022-09-12T23:11:02.462Z,158478.00
2022-09-12T23:13:29.989Z,158468.69
2022-09-12T23:15:58.920Z,158463.34
2022-09-12T23:18:26.805Z,158458.00
2022-09-12T23:21:04.029Z,158447.38
2022-09-12T23:23:31.793Z,158446.06
2022-09-12T23:26:19.355Z,158435.38
2022-09-12T23:28:55.027Z,158423.38
2022-09-12T23:31:23.900Z,158416.72
2022-09-12T23:33:55.669Z,158416.72
2022-09-12T23:36:23.826Z,158415.41
2022-09-12T23:38:51.884Z,158392.78
2022-09-12T23:41:19.542Z,158398.13
2022-09-12T23:43:47.387Z,158392.78
2022-09-12T23:46:15.573Z,158390.16
2022-09-12T23:48:43.808Z,158360.88
2022-09-12T23:51:11.593Z,158368.84
2022-09-12T23:53:39.733Z,158370.16
2022-09-12T23:56:07.720Z,158380.78
2022-09-12T23:58:35.168Z,158374.13
